Time;durP1;ratioP1;P1;durP2;ratioP2;P2;SDS_P1;SDS_P2;PMS_P1;PMS_P2;Temp;Humidity;BMP_temperature;BMP_pressure;BME280_temperature;BME280_humidity;BME280_pressure;Samples;Min_cycle;Max_cycle;Signal;HPM_P1;HPM_P2
2022/04/08 00:01:42;;;;;;;9.50;6.10;;;;;;;11.97;64.60;99889.03;4975242;28;20034;-84
2022/04/08 00:04:08;;;;;;;10.02;6.07;;;;;;;11.98;64.93;99895.03;4991413;28;20042;-83
2022/04/08 00:06:33;;;;;;;13.30;5.90;;;;;;;11.97;65.11;99898.56;4991133;28;20038;-83
2022/04/08 00:08:59;;;;;;;9.40;5.68;;;;;;;11.95;65.03;99890.06;4958446;28;20503;-83
2022/04/08 00:11:25;;;;;;;12.48;5.75;;;;;;;11.93;64.89;99876.38;4958981;28;20097;-83
2022/04/08 00:13:52;;;;;;;7.97;5.75;;;;;;;12.03;64.06;99890.41;4959241;28;20039;-83
2022/04/08 00:16:18;;;;;;;9.75;6.00;;;;;;;11.93;64.67;99874.63;4974949;28;20030;-83
2022/04/08 00:18:45;;;;;;;9.07;5.70;;;;;;;12.02;64.15;99886.16;4958970;28;20038;-83
2022/04/08 00:21:11;;;;;;;10.88;6.15;;;;;;;12.05;64.35;99897.13;4959150;28;20065;-83
2022/04/08 00:23:36;;;;;;;11.93;6.00;;;;;;;11.83;64.69;99867.56;4990783;28;20066;-83
2022/04/08 00:26:02;;;;;;;9.15;5.80;;;;;;;12.08;63.79;99893.50;4990816;28;20515;-83
2022/04/08 00:28:27;;;;;;;7.75;5.75;;;;;;;12.00;64.60;99880.25;4974792;28;20030;-83
2022/04/08 00:30:53;;;;;;;9.75;6.38;;;;;;;11.99;64.51;99888.91;4974722;28;20142;-83
2022/04/08 00:33:18;;;;;;;9.30;6.13;;;;;;;11.72;64.26;99848.34;4991280;28;20034;-83
2022/04/08 00:35:44;;;;;;;11.32;6.03;;;;;;;11.77;64.73;99871.34;4990960;28;20030;-84
2022/04/08 00:38:09;;;;;;;10.02;5.57;;;;;;;11.87;64.76;99890.56;4990553;28;20488;-83
2022/04/08 00:40:35;;;;;;;8.55;5.00;;;;;;;11.71;65.23;99876.94;4958422;28;20027;-83
2022/04/08 00:43:13;;;;;;;8.25;5.20;;;;;;;11.75;65.07;99891.34;4958507;28;20116;-83
2022/04/08 00:45:39;;;;;;;8.30;5.25;;;;;;;11.72;65.67;99892.38;4958395;28;20480;-84
2022/04/08 00:48:07;;;;;;;8.70;5.00;;;;;;;11.64;65.00;99892.06;4957883;28;20038;-83
2022/04/08 00:50:37;;;;;;;9.50;5.10;;;;;;;11.63;65.82;99892.97;4974809;28;20125;-83
2022/04/08 00:53:02;;;;;;;10.60;5.80;;;;;;;11.63;65.81;99895.56;4958371;28;20451;-83
2022/04/08 00:55:28;;;;;;;6.47;5.40;;;;;;;11.56;65.44;99890.88;4990603;28;20472;-83
2022/04/08 00:57:54;;;;;;;5.40;4.70;;;;;;;11.54;65.53;99884.97;4974544;28;20096;-83
2022/04/08 01:00:22;;;;;;;8.18;5.20;;;;;;;11.59;65.53;99901.88;4974151;28;20497;-83
2022/04/08 01:02:48;;;;;;;7.90;5.15;;;;;;;11.32;65.71;99859.63;4958903;28;20145;-83
2022/04/08 01:05:13;;;;;;;10.10;5.60;;;;;;;11.60;65.77;99898.38;4990136;28;20121;-83
2022/04/08 01:07:39;;;;;;;10.45;5.88;;;;;;;11.35;65.52;99869.78;4973974;28;20030;-83
2022/04/08 01:10:05;;;;;;;9.52;4.97;;;;;;;11.48;65.72;99907.75;4990360;28;20133;-83
2022/04/08 01:12:31;;;;;;;9.02;5.50;;;;;;;11.51;65.00;99890.38;4974077;28;20457;-83
2022/04/08 01:14:57;;;;;;;9.68;5.53;;;;;;;11.65;63.72;99906.66;4958009;28;20060;-83
2022/04/08 01:17:23;;;;;;;7.13;4.97;;;;;;;11.60;63.15;99881.97;4990187;28;20031;-83
2022/04/08 01:19:49;;;;;;;11.18;5.75;;;;;;;11.77;62.53;99882.53;4974135;28;20483;-83
2022/04/08 01:22:14;;;;;;;6.93;5.03;;;;;;;11.83;62.68;99894.31;4973850;28;20030;-83
2022/04/08 01:24:40;;;;;;;10.68;5.47;;;;;;;11.77;62.25;99885.13;4974053;28;20041;-83
2022/04/08 01:27:05;;;;;;;9.10;5.50;;;;;;;11.94;61.93;99901.38;4958013;28;20033;-84
2022/04/08 01:29:31;;;;;;;6.15;4.25;;;;;;;11.89;61.98;99883.50;4989973;28;20050;-83
2022/04/08 01:31:56;;;;;;;8.80;5.20;;;;;;;11.65;62.40;99878.16;4957946;28;20042;-83
2022/04/08 01:34:22;;;;;;;8.00;4.75;;;;;;;11.76;62.40;99883.47;4990000;28;20033;-83
2022/04/08 01:36:47;;;;;;;7.53;5.15;;;;;;;11.72;62.79;99897.56;4989567;28;20031;-83
2022/04/08 01:39:13;;;;;;;6.82;4.75;;;;;;;11.63;63.44;99902.50;4957887;28;20045;-84
2022/04/08 01:41:38;;;;;;;8.05;4.22;;;;;;;11.53;63.39;99891.09;4973885;28;20057;-83
2022/04/08 01:44:04;;;;;;;7.10;3.85;;;;;;;11.58;63.64;99895.03;4973758;28;20443;-83
2022/04/08 01:46:29;;;;;;;7.38;4.00;;;;;;;11.83;63.29;99906.44;4973736;28;20045;-83
2022/04/08 01:48:55;;;;;;;6.45;3.17;;;;;;;11.92;62.98;99913.59;4989725;28;20108;-84
2022/04/08 01:51:21;;;;;;;6.15;3.90;;;;;;;12.02;62.42;99906.88;4973303;28;20031;-83
2022/04/08 01:53:47;;;;;;;8.07;5.00;;;;;;;12.01;62.33;99906.06;4973832;28;20176;-83
2022/04/08 01:56:13;;;;;;;6.18;4.13;;;;;;;12.07;62.08;99913.41;4957700;28;20480;-83
2022/04/08 01:58:39;;;;;;;7.20;4.50;;;;;;;12.12;62.54;99910.53;4989798;28;20475;-83
2022/04/08 02:01:04;;;;;;;11.07;4.90;;;;;;;12.11;62.53;99911.47;4974918;28;20491;-83
2022/04/08 02:03:29;;;;;;;6.07;4.32;;;;;;;12.13;62.42;99911.34;4977531;28;20477;-83
2022/04/08 02:05:55;;;;;;;6.88;4.38;;;;;;;12.09;62.31;99913.31;4960919;28;20027;-83
2022/04/08 02:08:21;;;;;;;8.65;4.90;;;;;;;12.12;62.04;99912.28;4977434;28;20060;-83
2022/04/08 02:10:46;;;;;;;6.45;4.47;;;;;;;12.13;62.29;99914.78;4993594;28;20026;-83
2022/04/08 02:13:12;;;;;;;7.53;5.10;;;;;;;12.14;61.87;99908.66;4993576;28;20428;-83
2022/04/08 02:15:37;;;;;;;5.93;4.13;;;;;;;11.90;61.75;99869.66;4977277;28;20045;-83
2022/04/08 02:18:04;;;;;;;6.13;4.53;;;;;;;12.16;61.74;99906.78;4977033;28;20081;-83
2022/04/08 02:20:30;;;;;;;8.90;4.72;;;;;;;12.09;62.31;99902.94;4960735;28;20049;-83
2022/04/08 02:22:55;;;;;;;6.22;4.07;;;;;;;12.13;61.64;99911.34;4993387;28;20441;-83
2022/04/08 02:25:21;;;;;;;7.68;4.70;;;;;;;12.05;62.07;99899.72;4977396;28;20070;-83
2022/04/08 02:27:46;;;;;;;5.25;3.97;;;;;;;12.16;61.68;99911.16;4961015;28;20508;-83
2022/04/08 02:30:15;;;;;;;6.80;4.57;;;;;;;12.25;62.21;99919.13;4992961;28;20046;-83
2022/04/08 02:32:40;;;;;;;7.22;4.50;;;;;;;12.07;61.69;99923.78;4961220;28;20069;-83
2022/04/08 02:35:06;;;;;;;8.18;4.50;;;;;;;12.03;62.18;99914.56;4960796;28;20026;-83
2022/04/08 02:37:31;;;;;;;7.07;4.38;;;;;;;12.07;62.13;99922.94;4976815;28;20476;-83
2022/04/08 02:39:57;;;;;;;7.80;4.03;;;;;;;12.06;62.30;99924.72;4976706;28;20481;-83
2022/04/08 02:42:23;;;;;;;6.63;3.78;;;;;;;11.70;62.52;99893.41;4976536;28;20041;-83
2022/04/08 02:44:48;;;;;;;6.80;4.10;;;;;;;11.84;62.94;99924.47;4992921;28;20473;-83
2022/04/08 02:47:14;;;;;;;5.75;3.72;;;;;;;11.88;62.72;99930.28;4960197;28;20065;-83
2022/04/08 02:49:39;;;;;;;5.38;3.42;;;;;;;11.96;62.87;99941.81;4976739;28;20077;-83
2022/04/08 02:52:05;;;;;;;6.38;3.25;;;;;;;11.94;62.89;99948.03;4993082;28;20045;-83
2022/04/08 02:54:31;;;;;;;5.60;3.08;;;;;;;11.97;62.66;99948.66;4976574;28;20066;-83
2022/04/08 02:56:56;;;;;;;5.53;3.30;;;;;;;11.85;63.34;99953.81;4976316;28;20084;-83
2022/04/08 02:59:21;;;;;;;4.85;3.08;;;;;;;11.80;63.39;99946.34;4976200;28;20047;-85
2022/04/08 03:01:48;;;;;;;4.97;3.40;;;;;;;11.70;63.26;99940.91;4975971;28;20412;-82
2022/04/08 03:04:13;;;;;;;6.47;3.08;;;;;;;11.81;62.83;99954.94;4976499;28;20080;-81
2022/04/08 03:06:39;;;;;;;6.07;3.20;;;;;;;11.84;62.94;99958.16;4994002;28;20034;-81
2022/04/08 03:09:05;;;;;;;6.13;3.35;;;;;;;11.90;63.17;99967.31;4992582;28;20034;-81
2022/04/08 03:11:32;;;;;;;6.03;3.42;;;;;;;11.98;62.72;99965.03;4975982;28;20018;-81
2022/04/08 03:13:59;;;;;;;5.60;3.40;;;;;;;11.98;62.33;99976.22;4992448;28;20034;-81
2022/04/08 03:16:25;;;;;;;5.45;3.63;;;;;;;11.86;62.17;99953.72;4976137;28;20027;-81
2022/04/08 03:18:50;;;;;;;4.85;3.67;;;;;;;11.66;62.33;99923.88;4976118;28;20069;-81
2022/04/08 03:21:16;;;;;;;6.93;4.00;;;;;;;11.98;62.61;99967.63;4992308;28;20465;-81
2022/04/08 03:23:43;;;;;;;7.20;3.90;;;;;;;11.89;62.24;99947.47;4992272;28;20034;-81
2022/04/08 03:26:08;;;;;;;5.90;4.10;;;;;;;12.05;61.64;99959.34;4992266;28;20026;-81
2022/04/08 03:28:34;;;;;;;7.53;4.00;;;;;;;12.14;61.33;99970.88;4992119;28;20029;-81
2022/04/08 03:31:01;;;;;;;7.50;3.90;;;;;;;12.18;61.83;99961.97;4975364;28;20112;-81
2022/04/08 03:33:27;;;;;;;5.25;3.38;;;;;;;12.50;60.27;99953.81;4977508;28;20030;-82
2022/04/08 03:35:52;;;;;;;7.75;3.80;;;;;;;12.56;60.35;99956.81;4994620;28;20041;-83
2022/04/08 03:38:18;;;;;;;5.97;3.90;;;;;;;12.33;60.19;99958.38;4978440;28;20411;-83
2022/04/08 03:40:43;;;;;;;6.30;3.78;;;;;;;12.09;60.74;99941.81;4978429;28;20030;-84
2022/04/08 03:43:09;;;;;;;5.68;3.85;;;;;;;12.15;60.74;99959.56;4994671;28;20038;-84
2022/04/08 03:45:34;;;;;;;6.78;3.88;;;;;;;12.14;61.11;99972.66;4994332;28;20435;-83
2022/04/08 03:48:00;;;;;;;6.60;3.83;;;;;;;11.99;61.23;99961.50;4978538;28;20073;-84
2022/04/08 03:50:25;;;;;;;5.68;3.72;;;;;;;12.01;61.12;99980.41;4978278;28;20396;-82
2022/04/08 03:52:51;;;;;;;5.55;3.70;;;;;;;11.99;60.26;99982.25;4994821;28;20109;-82
2022/04/08 03:55:17;;;;;;;5.55;3.50;;;;;;;11.93;60.56;99972.28;4994395;28;20088;-83
2022/04/08 03:57:42;;;;;;;4.53;3.50;;;;;;;11.81;60.53;99984.28;4994113;28;20033;-82
2022/04/08 04:00:09;;;;;;;7.00;4.22;;;;;;;11.62;61.26;99963.88;4994173;28;20050;-83
2022/04/08 04:02:35;;;;;;;6.70;4.65;;;;;;;11.68;60.43;99984.19;5010794;28;20028;-83
2022/04/08 04:05:01;;;;;;;9.38;5.65;;;;;;;11.72;60.68;100003.81;4991203;28;20064;-83
2022/04/08 04:07:27;;;;;;;10.38;5.28;;;;;;;11.73;60.83;100002.03;4993049;28;20022;-82
2022/04/08 04:09:53;;;;;;;7.35;4.20;;;;;;;11.74;60.92;100008.88;5010731;28;20112;-82
2022/04/08 04:12:18;;;;;;;5.40;3.17;;;;;;;11.60;59.92;99994.22;4978220;28;20121;-83
2022/04/08 04:14:44;;;;;;;4.72;3.00;;;;;;;11.77;60.43;100009.50;5006593;28;20417;-92
2022/04/08 04:17:09;;;;;;;7.97;3.40;;;;;;;11.87;59.58;100027.94;4999592;28;20045;-82
2022/04/08 04:19:36;;;;;;;6.63;3.03;;;;;;;11.88;58.57;100018.41;4974180;28;20046;-86
2022/04/08 04:22:02;;;;;;;3.90;2.90;;;;;;;11.91;58.25;100026.00;4974394;28;20033;-80
2022/04/08 04:24:28;;;;;;;5.10;2.50;;;;;;;12.03;58.16;100032.97;4983710;28;20050;-80
2022/04/08 04:26:53;;;;;;;5.70;2.85;;;;;;;12.10;57.32;100031.66;5007373;28;20480;-80
2022/04/08 04:29:19;;;;;;;5.55;2.60;;;;;;;12.15;56.75;100029.59;4989408;28;20069;-80
2022/04/08 04:31:44;;;;;;;5.53;2.55;;;;;;;12.29;56.99;100041.66;5031292;28;20036;-84
2022/04/08 04:34:10;;;;;;;3.60;2.17;;;;;;;12.32;56.60;100039.72;5013180;28;20029;-83
2022/04/08 04:36:35;;;;;;;3.92;1.90;;;;;;;12.29;56.57;100033.88;5029459;28;20415;-83
2022/04/08 04:39:01;;;;;;;3.10;1.70;;;;;;;12.30;56.46;100044.16;5007157;28;20111;-82
2022/04/08 04:41:26;;;;;;;5.15;2.65;;;;;;;12.45;56.56;100067.44;4989856;28;20049;-81
2022/04/08 04:43:52;;;;;;;3.40;2.03;;;;;;;12.40;56.70;100059.97;4989783;28;20034;-84
2022/04/08 04:46:17;;;;;;;5.07;2.60;;;;;;;12.49;56.22;100074.09;5007307;28;20029;-83
2022/04/08 04:48:43;;;;;;;4.70;2.50;;;;;;;12.48;56.56;100075.00;5010082;28;20442;-86
2022/04/08 04:51:11;;;;;;;6.28;2.92;;;;;;;12.54;56.32;100079.81;4992679;28;20034;-85
2022/04/08 04:53:37;;;;;;;3.60;2.08;;;;;;;12.50;55.94;100070.56;4993189;28;20451;-83
2022/04/08 04:56:03;;;;;;;2.67;1.45;;;;;;;12.59;55.96;100085.53;5011286;28;20029;-82
2022/04/08 04:58:28;;;;;;;3.88;1.83;;;;;;;12.63;56.20;100092.16;4990566;28;20058;-86
2022/04/08 05:00:54;;;;;;;4.97;2.90;;;;;;;12.69;56.25;100080.56;4996058;28;20041;-91
2022/04/08 05:03:19;;;;;;;5.15;2.90;;;;;;;12.62;55.78;100086.16;5009238;28;20038;-90
2022/04/08 05:05:45;;;;;;;4.95;2.58;;;;;;;12.66;56.41;100091.13;4988026;28;20072;-83
2022/04/08 05:08:10;;;;;;;5.05;2.42;;;;;;;12.74;55.75;100094.88;4995969;28;20029;-84
2022/04/08 05:10:36;;;;;;;4.28;2.40;;;;;;;12.77;55.02;100089.47;5011255;28;20025;-88
2022/04/08 05:13:02;;;;;;;3.58;2.15;;;;;;;12.86;54.45;100094.06;4995632;28;20037;-86
2022/04/08 05:15:28;;;;;;;4.78;2.80;;;;;;;12.93;54.17;100094.50;4993713;28;20041;-88
2022/04/08 05:17:54;;;;;;;7.38;3.63;;;;;;;12.98;54.99;100109.75;4978141;28;20048;-85
2022/04/08 05:20:20;;;;;;;6.03;2.78;;;;;;;13.10;54.21;100121.94;4987807;28;20384;-92
2022/04/08 05:22:46;;;;;;;4.45;2.90;;;;;;;13.20;53.54;100118.66;5006679;28;20132;-86
2022/04/08 05:25:11;;;;;;;5.07;2.58;;;;;;;13.32;52.99;100137.75;4994759;28;20105;-89
2022/04/08 05:27:41;;;;;;;4.95;2.45;;;;;;;13.39;53.39;100139.00;4994695;28;20495;-84
2022/04/08 05:30:12;;;;;;;4.38;2.03;;;;;;;13.44;52.82;100144.72;5004972;28;20033;-89
2022/04/08 05:32:38;;;;;;;4.28;2.47;;;;;;;13.18;52.60;100099.72;4996452;28;20029;-84
2022/04/08 05:35:04;;;;;;;4.85;2.70;;;;;;;13.63;52.08;100143.44;4993170;28;20049;-85
2022/04/08 05:37:29;;;;;;;5.78;3.00;;;;;;;13.67;52.18;100150.13;4986061;28;20042;-82
2022/04/08 05:39:55;;;;;;;5.93;3.30;;;;;;;13.66;52.15;100159.66;4999220;28;20120;-80
2022/04/08 05:42:21;;;;;;;5.75;2.60;;;;;;;13.72;51.66;100169.63;4997349;28;20064;-81
2022/04/08 05:44:46;;;;;;;7.20;4.22;;;;;;;13.79;51.61;100167.44;5013924;28;20434;-82
2022/04/08 05:47:12;;;;;;;6.07;2.60;;;;;;;13.92;51.18;100168.25;4995835;28;20041;-87
2022/04/08 05:49:37;;;;;;;4.53;2.90;;;;;;;13.98;50.87;100160.03;5013403;28;20029;-89
2022/04/08 05:52:04;;;;;;;4.13;2.25;;;;;;;14.05;50.97;100171.63;4998664;28;20514;-87
2022/04/08 05:54:30;;;;;;;5.03;2.17;;;;;;;14.02;50.74;100158.88;4987390;28;20188;-90
2022/04/08 05:57:00;;;;;;;4.43;2.50;;;;;;;14.15;50.48;100166.63;4962134;28;20049;-84
2022/04/08 05:59:29;;;;;;;4.10;2.70;;;;;;;14.31;50.15;100172.41;5001628;28;20063;-83
2022/04/08 06:01:55;;;;;;;3.17;1.83;;;;;;;14.45;48.17;100192.25;4987999;28;20121;-90
2022/04/08 06:04:23;;;;;;;11.18;2.70;;;;;;;14.50;48.43;100189.34;4984276;28;20109;-86
2022/04/08 06:06:50;;;;;;;7.07;2.78;;;;;;;14.46;49.14;100173.13;4978628;28;20567;-80
2022/04/08 06:09:15;;;;;;;6.65;2.13;;;;;;;14.68;48.33;100200.19;5005258;28;20032;-82
2022/04/08 06:11:42;;;;;;;4.97;2.55;;;;;;;14.85;48.29;100205.84;5014118;28;20038;-83
2022/04/08 06:14:08;;;;;;;6.35;3.42;;;;;;;14.89;47.97;100209.03;5014232;28;20120;-85
2022/04/08 06:16:33;;;;;;;5.68;2.75;;;;;;;15.02;47.48;100212.41;5014020;28;20048;-86
2022/04/08 06:18:59;;;;;;;4.93;2.50;;;;;;;14.96;47.75;100189.41;5013732;28;20095;-83
2022/04/08 06:21:24;;;;;;;3.72;2.40;;;;;;;15.17;47.10;100219.09;5012962;28;20032;-85
2022/04/08 06:23:51;;;;;;;3.60;1.98;;;;;;;15.24;46.89;100216.88;4996833;28;20553;-86
2022/04/08 06:26:17;;;;;;;5.47;2.92;;;;;;;15.44;47.21;100224.00;5014321;28;20400;-88
2022/04/08 06:28:42;;;;;;;4.35;2.72;;;;;;;15.57;46.99;100213.47;5016263;28;20037;-87
2022/04/08 06:31:08;;;;;;;3.10;2.20;;;;;;;15.68;46.71;100204.88;5012765;28;20053;-90
2022/04/08 06:33:33;;;;;;;4.78;3.05;;;;;;;15.89;45.50;100218.03;4977478;28;20057;-89
2022/04/08 06:36:02;;;;;;;6.25;3.30;;;;;;;16.03;44.87;100215.19;4978219;28;20484;-90
2022/04/08 06:38:28;;;;;;;3.65;2.50;;;;;;;16.08;44.36;100207.81;4988234;28;20048;-87
2022/04/08 06:40:53;;;;;;;6.38;3.10;;;;;;;16.26;43.52;100201.16;4996812;28;20472;-89
2022/04/08 06:43:19;;;;;;;4.57;2.80;;;;;;;16.09;42.85;100183.38;4995841;28;21289;-84
2022/04/08 06:45:44;;;;;;;10.23;3.75;;;;;;;16.32;42.67;100212.88;5013857;28;20030;-89
2022/04/08 06:48:10;;;;;;;4.05;2.80;;;;;;;16.47;42.80;100211.66;4978867;28;20032;-92
2022/04/08 06:50:36;;;;;;;4.10;2.63;;;;;;;16.60;42.58;100214.94;5004116;28;20034;-88
2022/04/08 06:53:02;;;;;;;6.15;3.05;;;;;;;16.66;42.84;100207.56;4997994;28;20029;-84
2022/04/08 06:55:31;;;;;;;8.10;3.90;;;;;;;16.96;42.93;100236.47;4997241;28;20025;-91
2022/04/08 06:57:58;;;;;;;6.43;3.13;;;;;;;17.07;40.59;100238.19;5001169;28;20030;-89
2022/04/08 07:00:23;;;;;;;7.22;3.85;;;;;;;17.23;41.91;100230.75;4976105;28;21215;-93
2022/04/08 07:02:49;;;;;;;3.72;2.60;;;;;;;17.34;39.60;100246.38;5007985;28;20124;-92
2022/04/08 07:05:14;;;;;;;5.00;2.65;;;;;;;17.20;38.69;100210.09;4993886;28;20099;-83
2022/04/08 07:07:40;;;;;;;5.15;3.00;;;;;;;17.19;38.54;100217.09;4989562;28;20038;-85
2022/04/08 07:10:06;;;;;;;4.82;2.85;;;;;;;17.39;39.58;100243.38;4996170;28;20041;-86
2022/04/08 07:12:32;;;;;;;5.28;3.00;;;;;;;17.46;38.29;100261.03;5019442;28;20042;-83
2022/04/08 07:14:57;;;;;;;5.93;2.92;;;;;;;17.46;37.44;100255.00;5008224;28;20040;-93
2022/04/08 07:17:30;;;;;;;5.65;3.00;;;;;;;17.56;38.59;100263.72;5005928;28;20041;-89
2022/04/08 07:19:56;;;;;;;7.72;3.30;;;;;;;17.67;39.33;100252.34;4997407;28;20049;-84
2022/04/08 07:22:22;;;;;;;5.18;2.90;;;;;;;17.77;38.42;100266.34;5001224;28;20076;-86
2022/04/08 07:24:48;;;;;;;8.10;3.20;;;;;;;17.75;37.84;100250.78;5001299;28;20057;-86
2022/04/08 07:27:14;;;;;;;4.68;2.58;;;;;;;17.85;37.48;100257.84;5014835;28;20626;-86
2022/04/08 07:29:39;;;;;;;5.18;2.38;;;;;;;17.85;37.55;100256.06;4979471;28;20461;-86
2022/04/08 07:32:05;;;;;;;4.63;2.50;;;;;;;18.03;37.99;100282.47;5012876;28;20849;-88
2022/04/08 07:34:31;;;;;;;3.58;2.33;;;;;;;17.77;38.16;100245.41;4986759;28;20041;-85
2022/04/08 07:36:56;;;;;;;3.45;2.40;;;;;;;18.06;36.97;100275.16;4975964;28;20048;-83
2022/04/08 07:39:22;;;;;;;5.50;2.65;;;;;;;18.22;36.29;100273.84;5001104;28;20033;-86
2022/04/08 07:41:47;;;;;;;3.30;2.28;;;;;;;18.38;36.71;100273.34;5009593;28;20037;-90
2022/04/08 07:44:13;;;;;;;5.13;2.55;;;;;;;18.51;36.47;100272.16;5011741;28;20038;-89
2022/04/08 07:46:38;;;;;;;3.88;2.58;;;;;;;18.67;37.13;100273.44;5012258;28;20798;-87
2022/04/08 07:49:04;;;;;;;3.25;2.30;;;;;;;18.59;35.99;100272.31;5014979;28;20026;-85
2022/04/08 07:51:29;;;;;;;3.80;2.30;;;;;;;18.77;37.53;100285.59;5015119;28;20533;-84
2022/04/08 07:53:55;;;;;;;6.63;2.60;;;;;;;18.87;35.54;100296.09;4977268;28;20045;-91
2022/04/08 07:56:20;;;;;;;4.47;2.50;;;;;;;19.01;33.62;100298.31;5013062;28;20072;-87
2022/04/08 07:58:47;;;;;;;6.85;2.78;;;;;;;19.08;34.80;100290.75;4994485;28;20045;-82
2022/04/08 08:01:13;;;;;;;3.97;2.38;;;;;;;19.08;34.63;100282.88;4998283;28;20057;-85
2022/04/08 08:03:38;;;;;;;6.95;2.80;;;;;;;19.24;34.14;100296.25;5008102;28;20045;-90
2022/04/08 08:06:04;;;;;;;3.83;2.08;;;;;;;19.28;34.51;100315.19;4971898;28;20040;-81
2022/04/08 08:08:30;;;;;;;4.03;2.30;;;;;;;19.27;33.41;100303.00;4977071;28;20641;-84
2022/04/08 08:10:55;;;;;;;3.50;2.30;;;;;;;19.24;34.02;100284.94;5005597;28;20037;-88
2022/04/08 08:13:21;;;;;;;2.90;2.20;;;;;;;19.38;34.37;100303.72;5022463;28;20124;-82
2022/04/08 08:15:47;;;;;;;5.32;2.70;;;;;;;19.59;34.91;100305.38;5019323;28;20037;-80
2022/04/08 08:18:12;;;;;;;5.75;2.80;;;;;;;19.59;32.86;100287.00;5014250;28;20062;-84
2022/04/08 08:20:38;;;;;;;3.85;2.35;;;;;;;19.57;32.23;100321.25;5014352;28;20033;-83
2022/04/08 08:23:03;;;;;;;4.95;2.35;;;;;;;19.65;31.69;100300.38;4995892;28;20115;-88
2022/04/08 08:25:29;;;;;;;7.97;3.53;;;;;;;19.84;33.31;100303.91;4996773;28;20033;-85
2022/04/08 08:27:58;;;;;;;7.15;2.30;;;;;;;19.90;32.13;100306.00;4994776;28;21752;-86
2022/04/08 08:30:23;;;;;;;6.72;2.20;;;;;;;19.87;31.29;100306.28;5012423;28;20482;-84
2022/04/08 08:32:49;;;;;;;5.78;2.88;;;;;;;19.93;31.15;100313.56;5010963;28;20041;-82
2022/04/08 08:35:18;;;;;;;7.75;4.00;;;;;;;20.07;32.52;100320.19;4983862;28;20022;-84
2022/04/08 08:37:45;;;;;;;8.00;2.65;;;;;;;20.23;30.77;100323.00;4974438;28;20045;-88
2022/04/08 08:40:14;;;;;;;7.28;3.33;;;;;;;20.26;30.63;100299.91;5004864;28;20500;-85
2022/04/08 08:42:40;;;;;;;6.78;3.83;;;;;;;20.47;30.18;100317.28;5013710;28;20503;-84
2022/04/08 08:45:06;;;;;;;3.47;2.20;;;;;;;20.51;30.87;100337.03;4977451;28;20404;-82
2022/04/08 08:47:32;;;;;;;5.13;2.17;;;;;;;20.47;30.29;100319.91;4989315;28;20030;-84
2022/04/08 08:49:58;;;;;;;6.18;2.78;;;;;;;20.77;31.05;100327.47;4975445;28;20026;-84
2022/04/08 08:52:23;;;;;;;7.28;2.92;;;;;;;20.77;30.36;100335.38;4997351;28;20121;-82
2022/04/08 08:54:49;;;;;;;4.43;2.40;;;;;;;20.64;31.15;100300.69;4976125;28;20535;-83
2022/04/08 08:57:18;;;;;;;4.93;2.42;;;;;;;20.79;29.59;100340.47;5018829;28;20116;-83
2022/04/08 08:59:44;;;;;;;4.43;2.45;;;;;;;20.85;29.45;100339.88;4993019;28;20048;-86
2022/04/08 09:02:10;;;;;;;7.90;3.80;;;;;;;21.08;30.54;100356.06;5004738;28;20040;-81
2022/04/08 09:04:41;;;;;;;5.22;2.75;;;;;;;21.26;29.30;100343.78;4995132;28;20100;-84
2022/04/08 09:07:27;;;;;;;6.72;3.15;;;;;;;21.20;29.66;100344.34;4989805;28;20021;-87
2022/04/08 09:09:54;;;;;;;7.00;3.20;;;;;;;21.31;29.46;100330.97;4988126;28;20181;-86
2022/04/08 09:12:20;;;;;;;6.75;3.65;;;;;;;21.42;29.28;100338.63;4990351;28;20037;-89
2022/04/08 09:14:50;;;;;;;5.07;2.85;;;;;;;21.31;29.26;100341.50;4975349;28;20030;-87
2022/04/08 09:17:17;;;;;;;7.38;3.65;;;;;;;21.27;29.46;100344.59;4982483;28;20085;-83
2022/04/08 09:19:46;;;;;;;6.45;3.00;;;;;;;21.40;29.72;100351.13;4986636;28;20033;-86
2022/04/08 09:22:11;;;;;;;7.05;4.82;;;;;;;21.24;31.49;100347.47;4970245;28;20088;-84
2022/04/08 09:24:37;;;;;;;5.70;3.20;;;;;;;20.86;31.55;100338.91;4987817;28;20034;-89
2022/04/08 09:27:03;;;;;;;3.42;2.25;;;;;;;20.87;31.49;100314.28;5006270;28;20073;-83
2022/04/08 09:29:28;;;;;;;6.65;2.92;;;;;;;21.07;31.21;100349.16;5006642;28;20098;-81
2022/04/08 09:31:55;;;;;;;5.18;2.50;;;;;;;20.77;31.16;100359.03;5006610;28;20044;-83
2022/04/08 09:34:21;;;;;;;3.83;1.90;;;;;;;20.73;30.59;100362.91;4989754;28;20535;-84
2022/04/08 09:36:46;;;;;;;3.92;2.58;;;;;;;20.56;30.10;100361.91;4991668;28;21034;-85
2022/04/08 09:39:13;;;;;;;4.97;2.70;;;;;;;20.53;30.88;100361.34;4992489;28;20041;-82
2022/04/08 09:41:49;;;;;;;4.38;2.15;;;;;;;20.50;30.50;100366.91;5008391;28;20053;-91
2022/04/08 09:44:20;;;;;;;4.75;2.38;;;;;;;20.54;31.66;100365.63;4977380;28;20030;-88
2022/04/08 09:46:45;;;;;;;5.38;2.90;;;;;;;20.44;31.87;100346.44;4992348;28;20040;-85
2022/04/08 09:49:11;;;;;;;6.20;2.65;;;;;;;20.77;31.61;100376.59;4988753;28;20030;-82
2022/04/08 09:51:37;;;;;;;8.52;2.63;;;;;;;21.10;30.89;100386.50;5007617;28;20057;-81
2022/04/08 09:54:05;;;;;;;8.32;2.97;;;;;;;21.19;30.44;100379.50;5007034;28;20038;-81
2022/04/08 09:56:30;;;;;;;7.20;2.72;;;;;;;21.22;30.22;100360.78;4992552;28;20072;-82
2022/04/08 09:59:03;;;;;;;3.90;2.03;;;;;;;21.20;29.40;100376.72;5007466;28;20054;-81
2022/04/08 10:01:29;;;;;;;3.08;2.05;;;;;;;21.42;29.51;100375.47;5009024;28;20026;-83
2022/04/08 10:03:54;;;;;;;5.38;2.03;;;;;;;21.38;29.70;100368.88;4992052;28;20022;-83
2022/04/08 10:06:21;;;;;;;6.50;2.30;;;;;;;21.48;29.09;100374.88;4990639;28;20511;-82
2022/04/08 10:08:47;;;;;;;4.22;2.20;;;;;;;21.24;29.34;100353.59;4991786;28;20579;-86
2022/04/08 10:11:18;;;;;;;3.22;1.85;;;;;;;21.07;28.94;100336.81;4992194;28;20114;-85
2022/04/08 10:14:15;;;;;;;7.17;2.43;;;;;;;20.94;29.55;100338.97;4992900;28;20044;-83
2022/04/08 10:16:41;;;;;;;4.38;2.30;;;;;;;21.23;30.06;100365.06;5007913;28;20045;-80
2022/04/08 10:19:07;;;;;;;7.15;2.40;;;;;;;21.31;29.60;100370.44;4973102;28;20030;-80
2022/04/08 10:21:39;;;;;;;6.63;2.17;;;;;;;21.31;30.06;100357.28;4989192;28;20034;-80
2022/04/08 10:24:10;;;;;;;5.65;1.98;;;;;;;21.26;30.00;100358.69;4976079;28;20465;-80
2022/04/08 10:26:35;;;;;;;5.10;2.50;;;;;;;21.34;29.75;100356.19;4993457;28;20451;-81
2022/04/08 10:29:09;;;;;;;8.02;3.17;;;;;;;21.28;30.30;100354.97;4991643;28;20512;-81
2022/04/08 10:31:34;;;;;;;4.97;2.30;;;;;;;21.17;29.58;100360.44;4991608;28;20034;-84
2022/04/08 10:34:01;;;;;;;5.45;2.30;;;;;;;21.29;30.27;100359.25;4992739;28;20031;-81
2022/04/08 10:36:37;;;;;;;5.95;2.20;;;;;;;21.46;29.81;100363.69;4976398;28;20027;-82
2022/04/08 10:39:13;;;;;;;3.80;2.30;;;;;;;21.67;29.45;100358.09;4976120;28;20109;-82
2022/04/08 10:41:58;;;;;;;5.63;2.85;;;;;;;21.87;28.51;100357.91;4991891;28;20026;-83
2022/04/08 10:44:30;;;;;;;3.95;2.30;;;;;;;22.03;28.50;100356.22;5019342;28;20036;-81
2022/04/08 10:46:57;;;;;;;5.43;2.53;;;;;;;22.10;28.60;100355.59;5011566;28;20021;-83
2022/04/08 10:49:22;;;;;;;5.15;3.00;;;;;;;22.19;29.23;100333.59;4995001;28;20546;-83
2022/04/08 10:51:49;;;;;;;3.65;2.40;;;;;;;22.10;27.30;100352.97;4995069;28;20034;-88
2022/04/08 10:54:15;;;;;;;4.72;2.22;;;;;;;22.14;27.59;100331.44;4993248;28;20032;-85
2022/04/08 10:56:41;;;;;;;3.92;2.20;;;;;;;22.19;27.50;100344.13;4994660;28;20025;-81
2022/04/08 10:59:07;;;;;;;6.80;3.22;;;;;;;22.11;28.19;100338.81;4995212;28;20453;-83
2022/04/08 11:01:36;;;;;;;6.72;4.07;;;;;;;22.19;28.53;100362.56;4994730;28;20470;-82
2022/04/08 11:04:03;;;;;;;5.38;2.78;;;;;;;21.85;29.28;100344.91;5010985;28;20541;-83
2022/04/08 11:06:32;;;;;;;3.95;2.63;;;;;;;22.07;28.69;100362.03;5005390;28;20109;-84
2022/04/08 11:09:08;;;;;;;4.97;2.40;;;;;;;22.16;29.38;100349.72;5011313;28;20124;-82
2022/04/08 11:11:38;;;;;;;5.13;2.67;;;;;;;22.05;29.65;100333.16;4995898;28;20034;-81
2022/04/08 11:14:04;;;;;;;6.55;2.70;;;;;;;22.07;28.94;100338.31;5011443;28;20022;-82
2022/04/08 11:16:34;;;;;;;4.45;2.75;;;;;;;21.90;29.34;100337.34;4994705;28;20030;-81
2022/04/08 11:19:00;;;;;;;5.95;2.60;;;;;;;22.02;29.38;100336.13;4996056;28;20057;-84
2022/04/08 11:21:28;;;;;;;4.88;2.40;;;;;;;21.85;29.40;100347.53;4975748;28;20488;-82
2022/04/08 11:24:04;;;;;;;6.20;2.53;;;;;;;21.80;29.64;100347.16;4991653;28;20504;-79